Time;durP1;ratioP1;P1;durP2;ratioP2;P2;SDS_P1;SDS_P2;PMS_P1;PMS_P2;Temp;Humidity;BMP_temperature;BMP_pressure;BME280_temperature;BME280_humidity;BME280_pressure;Samples;Min_cycle;Max_cycle;Signal;HPM_P1;HPM_P2
2023/08/31 00:02:25;;;;;;;15.73;6.30;;;;;;;21.07;66.64;99730.60;125124;1099;104160;-78
2023/08/31 00:04:57;;;;;;;14.97;6.97;;;;;;;21.09;67.33;99735.91;124726;1099;104243;-80
2023/08/31 00:07:29;;;;;;;12.70;6.33;;;;;;;21.08;67.07;99740.34;124690;1099;104165;-78
2023/08/31 00:10:06;;;;;;;17.00;7.07;;;;;;;21.07;66.48;99740.41;124682;1099;102096;-78
2023/08/31 00:12:37;;;;;;;18.43;6.80;;;;;;;21.07;65.91;99740.41;124708;1099;104173;-78
2023/08/31 00:15:10;;;;;;;15.35;6.70;;;;;;;21.07;67.22;99743.94;124776;1099;102351;-78
2023/08/31 00:17:42;;;;;;;15.45;6.15;;;;;;;21.09;66.27;99735.91;124820;1099;101836;-78
2023/08/31 00:20:14;;;;;;;17.10;6.27;;;;;;;21.12;66.38;99743.85;124825;1099;104179;-77
2023/08/31 00:22:45;;;;;;;14.97;6.50;;;;;;;21.14;66.83;99734.88;124804;1099;101945;-77
2023/08/31 00:25:17;;;;;;;15.87;7.27;;;;;;;21.15;67.64;99731.32;125494;1099;104287;-77
2023/08/31 00:27:48;;;;;;;16.17;7.13;;;;;;;21.15;66.90;99725.98;124587;1099;102124;-77
2023/08/31 00:30:20;;;;;;;14.70;7.20;;;;;;;21.13;66.92;99734.92;124601;1099;102278;-78
2023/08/31 00:32:53;;;;;;;17.40;7.70;;;;;;;21.14;67.15;99728.69;124735;1099;101833;-79
2023/08/31 00:35:26;;;;;;;17.37;6.73;;;;;;;21.13;67.54;99729.58;124655;1102;102651;-78
2023/08/31 00:37:58;;;;;;;14.50;6.77;;;;;;;21.16;67.03;99732.19;124506;1102;104086;-77
2023/08/31 00:40:31;;;;;;;16.57;7.03;;;;;;;21.23;67.21;99740.97;124700;1099;104232;-76
2023/08/31 00:43:02;;;;;;;14.90;6.87;;;;;;;21.28;67.75;99741.75;124557;1099;102274;-77
2023/08/31 00:45:34;;;;;;;16.13;6.90;;;;;;;21.29;66.69;99743.52;124503;1099;101840;-76
2023/08/31 00:48:08;;;;;;;17.03;6.87;;;;;;;21.30;67.15;99743.48;124471;1099;104166;-77
2023/08/31 00:50:39;;;;;;;18.53;7.17;;;;;;;21.29;67.61;99740.84;124577;1099;104341;-77
2023/08/31 00:53:11;;;;;;;17.23;7.67;;;;;;;21.24;67.99;99735.60;124570;1099;104223;-77
2023/08/31 00:55:43;;;;;;;15.93;7.20;;;;;;;21.19;67.64;99734.80;124652;1099;102138;-77
2023/08/31 00:58:14;;;;;;;16.03;7.20;;;;;;;21.15;68.27;99731.32;124562;1102;104265;-77
2023/08/31 01:00:56;;;;;;;16.27;7.20;;;;;;;21.09;67.61;99728.77;124615;1099;102018;-77
2023/08/31 01:03:36;;;;;;;18.40;7.90;;;;;;;21.05;68.63;99726.20;124532;1099;104166;-77
2023/08/31 01:06:19;;;;;;;16.70;7.10;;;;;;;21.03;67.71;99723.56;124502;1099;104238;-77
2023/08/31 01:08:58;;;;;;;20.43;8.43;;;;;;;21.00;68.31;99718.28;124548;1099;104099;-77
2023/08/31 01:11:37;;;;;;;19.13;8.03;;;;;;;21.00;67.99;99726.28;124560;1099;104629;-77
2023/08/31 01:14:12;;;;;;;19.40;8.47;;;;;;;21.00;68.00;99719.19;124647;1099;104316;-76
2023/08/31 01:16:46;;;;;;;18.13;8.13;;;;;;;20.99;68.57;99714.75;125054;1099;104275;-77
2023/08/31 01:19:29;;;;;;;19.83;8.27;;;;;;;20.99;68.27;99705.88;125207;1099;101859;-77
2023/08/31 01:22:06;;;;;;;19.05;8.13;;;;;;;20.97;69.06;99715.67;125226;1099;102057;-77
2023/08/31 01:24:39;;;;;;;19.33;8.90;;;;;;;20.94;68.90;99718.41;124714;1102;104374;-77
2023/08/31 01:27:10;;;;;;;18.23;9.15;;;;;;;20.93;68.55;99714.87;124689;1099;102019;-77
2023/08/31 01:29:42;;;;;;;19.93;8.57;;;;;;;20.93;68.82;99722.00;124574;1099;102242;-77
2023/08/31 01:32:14;;;;;;;19.60;8.73;;;;;;;20.93;68.57;99732.66;124630;1099;104242;-76
2023/08/31 01:34:45;;;;;;;22.65;8.55;;;;;;;20.96;69.28;99729.94;124723;1099;104169;-77
2023/08/31 01:37:22;;;;;;;18.83;7.83;;;;;;;20.98;69.28;99726.31;124734;1099;101804;-77
2023/08/31 01:40:04;;;;;;;16.63;8.27;;;;;;;20.98;69.57;99726.31;124610;1099;102080;-76
2023/08/31 01:42:36;;;;;;;22.10;9.07;;;;;;;21.00;69.18;99729.85;124432;1099;104208;-77
2023/08/31 01:45:12;;;;;;;17.43;8.03;;;;;;;21.01;69.87;99726.25;124474;1099;104223;-76
2023/08/31 01:47:43;;;;;;;23.10;8.10;;;;;;;21.00;70.16;99724.52;124599;1099;103494;-77
2023/08/31 01:50:17;;;;;;;16.80;8.53;;;;;;;21.00;69.80;99731.62;124799;1099;104243;-77
2023/08/31 01:52:48;;;;;;;19.70;7.80;;;;;;;20.97;69.30;99739.67;124908;1099;101964;-77
2023/08/31 01:55:21;;;;;;;19.80;9.10;;;;;;;20.90;69.92;99741.59;124630;1099;104294;-77
2023/08/31 01:57:53;;;;;;;21.73;8.60;;;;;;;20.86;69.89;99747.88;125122;1099;104179;-76
2023/08/31 02:00:28;;;;;;;24.50;9.43;;;;;;;20.79;70.76;99728.45;124592;1099;104178;-77
2023/08/31 02:03:01;;;;;;;20.62;8.80;;;;;;;20.76;70.90;99724.98;125078;1099;104277;-77
2023/08/31 02:05:32;;;;;;;18.50;8.27;;;;;;;20.70;71.57;99731.29;125047;1099;104179;-76
2023/08/31 02:08:04;;;;;;;19.53;8.47;;;;;;;20.68;71.49;99737.55;124885;1099;103428;-77
2023/08/31 02:10:35;;;;;;;18.13;7.93;;;;;;;20.64;71.01;99731.36;124643;1099;104274;-77
2023/08/31 02:13:06;;;;;;;21.90;7.93;;;;;;;20.62;72.02;99730.52;124732;1098;104310;-77
2023/08/31 02:15:40;;;;;;;24.63;9.03;;;;;;;20.60;71.60;99724.31;124672;1099;104252;-76
2023/08/31 02:18:11;;;;;;;19.62;8.50;;;;;;;20.58;72.92;99724.34;124747;1099;104268;-77
2023/08/31 02:20:42;;;;;;;18.77;8.47;;;;;;;20.60;71.42;99725.22;124499;1102;102054;-77
2023/08/31 02:23:14;;;;;;;20.40;8.87;;;;;;;20.61;71.49;99726.09;124657;1099;101957;-77
2023/08/31 02:25:45;;;;;;;18.50;7.87;;;;;;;20.57;72.27;99725.27;124995;1099;102012;-77
2023/08/31 02:28:17;;;;;;;20.47;8.87;;;;;;;20.56;72.49;99718.17;124711;1099;104207;-77
2023/08/31 02:30:58;;;;;;;16.33;7.90;;;;;;;20.63;71.96;99726.93;125640;1098;104162;-76
2023/08/31 02:33:29;;;;;;;23.30;9.23;;;;;;;20.70;72.20;99720.63;124789;1099;104272;-77
2023/08/31 02:36:01;;;;;;;18.00;8.50;;;;;;;20.70;71.79;99731.29;124853;1099;104177;-76
2023/08/31 02:38:32;;;;;;;21.03;8.67;;;;;;;20.75;72.81;99723.20;125058;1099;101897;-76
2023/08/31 02:41:03;;;;;;;20.20;8.10;;;;;;;20.80;72.41;99710.66;124869;1099;102115;-76
2023/08/31 02:43:34;;;;;;;18.87;8.00;;;;;;;20.81;71.68;99707.09;124847;1098;104241;-76
2023/08/31 02:46:06;;;;;;;21.17;8.13;;;;;;;20.77;71.91;99698.29;124687;1099;104721;-76
2023/08/31 02:48:38;;;;;;;19.30;7.80;;;;;;;20.73;72.18;99698.38;124345;1099;104182;-76
2023/08/31 02:51:09;;;;;;;23.93;9.73;;;;;;;20.69;73.39;99704.66;124582;1099;101820;-76
2023/08/31 02:53:41;;;;;;;22.90;8.67;;;;;;;20.65;73.23;99701.19;124485;1099;104180;-76
2023/08/31 02:56:12;;;;;;;22.60;8.80;;;;;;;20.68;73.04;99701.13;124324;1099;104219;-76
2023/08/31 02:58:44;;;;;;;22.67;8.97;;;;;;;20.73;72.64;99696.58;124881;1099;102313;-76
2023/08/31 03:01:16;;;;;;;21.87;8.50;;;;;;;20.79;73.05;99693.80;124903;1099;104162;-76
2023/08/31 03:03:51;;;;;;;20.93;8.93;;;;;;;20.83;72.87;99690.18;124858;1099;104376;-76
2023/08/31 03:06:22;;;;;;;21.97;8.97;;;;;;;20.79;72.34;99688.47;124699;1099;101978;-77
2023/08/31 03:08:53;;;;;;;26.20;9.73;;;;;;;20.74;72.40;99681.45;124461;1099;102528;-76
2023/08/31 03:11:25;;;;;;;21.47;8.97;;;;;;;20.69;72.07;99689.53;124440;1099;104303;-76
2023/08/31 03:13:56;;;;;;;21.53;8.97;;;;;;;20.68;71.98;99684.23;124493;1099;104307;-76
2023/08/31 03:16:27;;;;;;;23.13;10.10;;;;;;;20.67;72.86;99683.36;124477;1099;104230;-76
2023/08/31 03:18:59;;;;;;;21.93;10.40;;;;;;;20.66;72.97;99678.93;124500;1099;104163;-76
2023/08/31 03:21:30;;;;;;;25.13;10.40;;;;;;;20.62;72.98;99666.56;124552;1099;104242;-77
2023/08/31 03:24:02;;;;;;;24.50;10.45;;;;;;;20.55;72.53;99670.23;124482;1102;104166;-77
2023/08/31 03:26:33;;;;;;;25.40;11.67;;;;;;;20.50;72.65;99664.12;124502;1099;104235;-77
2023/08/31 03:29:05;;;;;;;27.47;11.20;;;;;;;20.43;72.24;99658.90;124433;1099;104271;-76
2023/08/31 03:31:36;;;;;;;26.13;10.73;;;;;;;20.42;72.99;99654.47;124430;1099;104245;-76
2023/08/31 03:34:09;;;;;;;23.80;10.50;;;;;;;20.51;73.29;99665.89;124412;1099;104235;-76
2023/08/31 03:36:41;;;;;;;24.50;10.80;;;;;;;20.58;72.41;99662.18;124477;1099;104317;-76
2023/08/31 03:39:13;;;;;;;23.37;10.13;;;;;;;20.65;73.46;99669.20;124870;1099;102077;-78
2023/08/31 03:41:44;;;;;;;25.33;10.57;;;;;;;20.73;73.04;99674.39;125260;1099;104364;-76
2023/08/31 03:44:15;;;;;;;23.23;10.07;;;;;;;20.79;72.94;99687.59;124603;1099;104217;-76
2023/08/31 03:46:47;;;;;;;22.10;10.37;;;;;;;20.81;73.54;99683.97;124844;1099;104160;-76
2023/08/31 03:49:19;;;;;;;23.90;10.70;;;;;;;20.88;73.43;99691.86;124410;1102;104233;-76
2023/08/31 03:51:50;;;;;;;27.10;10.97;;;;;;;20.94;73.94;99689.07;124471;1099;104252;-76
2023/08/31 03:54:23;;;;;;;24.43;10.73;;;;;;;20.97;73.44;99697.91;124391;1099;104169;-76
2023/08/31 03:56:54;;;;;;;25.97;10.17;;;;;;;20.99;72.87;99703.21;124509;1099;102524;-76
2023/08/31 03:59:25;;;;;;;24.30;10.97;;;;;;;21.01;72.84;99704.92;124501;1099;102258;-76
2023/08/31 04:01:57;;;;;;;24.53;10.23;;;;;;;21.04;73.02;99703.98;124574;1099;104367;-76
2023/08/31 04:04:29;;;;;;;24.33;10.90;;;;;;;21.06;73.76;99704.83;124471;1099;104232;-76
2023/08/31 04:07:00;;;;;;;24.17;10.57;;;;;;;21.08;73.25;99711.00;124959;1099;102667;-76
2023/08/31 04:09:31;;;;;;;21.10;10.07;;;;;;;21.07;72.19;99709.27;124473;1098;104201;-76
2023/08/31 04:12:04;;;;;;;23.00;9.97;;;;;;;21.05;72.96;99707.53;124507;1102;104236;-77
2023/08/31 04:14:36;;;;;;;22.13;10.40;;;;;;;21.09;73.31;99715.44;124470;1099;104181;-76
2023/08/31 04:17:07;;;;;;;22.57;10.13;;;;;;;21.13;73.12;99719.81;124562;1099;104705;-76
2023/08/31 04:19:39;;;;;;;23.17;9.73;;;;;;;21.22;72.83;99720.52;124395;1099;101891;-76
2023/08/31 04:22:10;;;;;;;27.07;8.90;;;;;;;21.32;72.57;99725.64;125007;1099;104162;-75
2023/08/31 04:24:41;;;;;;;21.90;9.13;;;;;;;21.41;73.18;99721.02;125115;1099;104238;-76
2023/08/31 04:27:13;;;;;;;20.27;10.33;;;;;;;21.43;72.35;99713.88;125068;1099;102837;-76
2023/08/31 04:29:44;;;;;;;19.03;8.90;;;;;;;21.46;72.16;99703.14;124640;1099;104194;-76
2023/08/31 04:32:15;;;;;;;24.83;10.97;;;;;;;21.48;72.36;99703.97;124606;1099;102188;-77
2023/08/31 04:34:47;;;;;;;22.37;10.40;;;;;;;21.51;72.57;99706.61;124604;1099;102360;-76
2023/08/31 04:37:18;;;;;;;25.13;9.50;;;;;;;21.62;73.14;99712.58;124599;1099;102077;-76
2023/08/31 04:39:49;;;;;;;38.30;14.97;;;;;;;21.64;72.57;99709.88;124572;1099;106988;-77
2023/08/31 04:42:21;;;;;;;32.23;14.77;;;;;;;21.67;72.82;99708.00;125338;1099;101999;-78
2023/08/31 04:44:52;;;;;;;35.35;15.15;;;;;;;21.67;72.32;99708.00;124702;1102;102083;-78
2023/08/31 04:47:24;;;;;;;31.47;13.40;;;;;;;21.65;73.22;99709.84;124833;1099;102280;-81
2023/08/31 04:49:55;;;;;;;31.17;14.20;;;;;;;21.62;73.52;99722.39;124611;1102;119146;-78
2023/08/31 04:52:27;;;;;;;27.50;13.67;;;;;;;21.59;73.52;99725.13;124702;1098;104261;-80
2023/08/31 04:54:58;;;;;;;32.73;13.47;;;;;;;21.53;72.73;99716.35;124549;1102;101861;-76
2023/08/31 04:57:30;;;;;;;31.33;13.97;;;;;;;21.50;72.77;99720.85;124598;1098;102025;-77
2023/08/31 05:00:03;;;;;;;30.00;13.10;;;;;;;21.52;72.47;99716.38;124635;1099;104169;-76
2023/08/31 05:02:34;;;;;;;30.48;12.88;;;;;;;21.53;72.74;99715.45;124475;1099;101917;-78
2023/08/31 05:05:07;;;;;;;26.10;12.60;;;;;;;21.51;72.91;99720.81;124611;1099;104169;-78
2023/08/31 05:07:38;;;;;;;26.50;12.53;;;;;;;21.51;72.99;99726.16;124664;1099;104101;-77
2023/08/31 05:10:11;;;;;;;27.75;11.40;;;;;;;21.52;73.15;99721.72;124646;1099;104217;-77
2023/08/31 05:12:43;;;;;;;31.87;12.68;;;;;;;21.56;73.60;99739.41;124837;1099;104172;-77
2023/08/31 05:15:14;;;;;;;27.23;11.93;;;;;;;21.62;73.31;99747.28;125558;1099;102030;-77
2023/08/31 05:17:45;;;;;;;26.07;11.40;;;;;;;21.66;72.85;99745.41;124777;1099;104368;-77
2023/08/31 05:20:17;;;;;;;21.13;10.77;;;;;;;21.70;72.65;99749.78;124729;1099;104172;-77
2023/08/31 05:22:48;;;;;;;27.17;11.67;;;;;;;21.71;72.91;99751.55;124649;1099;104201;-78
2023/08/31 05:25:19;;;;;;;27.70;11.60;;;;;;;21.68;73.41;99754.30;125782;1099;101845;-78
2023/08/31 05:27:51;;;;;;;27.87;11.53;;;;;;;21.67;72.95;99760.53;124915;1099;103235;-76
2023/08/31 05:30:22;;;;;;;31.57;11.13;;;;;;;21.66;72.83;99754.33;124832;1099;102015;-77
2023/08/31 05:32:53;;;;;;;26.03;11.70;;;;;;;21.69;73.32;99766.70;124665;1099;101929;-78
2023/08/31 05:35:25;;;;;;;24.40;11.53;;;;;;;21.71;73.03;99763.10;124765;1100;102335;-78
2023/08/31 05:37:56;;;;;;;26.17;12.33;;;;;;;21.75;72.81;99768.38;124742;1102;104194;-78
2023/08/31 05:40:27;;;;;;;23.63;11.87;;;;;;;21.77;73.01;99774.55;124744;1099;104166;-78
2023/08/31 05:42:59;;;;;;;29.45;12.60;;;;;;;21.81;72.89;99770.91;124689;1100;102247;-79
2023/08/31 05:45:32;;;;;;;27.20;12.67;;;;;;;21.84;72.78;99777.05;124743;1099;102087;-78
2023/08/31 05:48:04;;;;;;;26.95;11.55;;;;;;;21.94;73.04;99776.84;124558;1099;104284;-78
2023/08/31 05:50:36;;;;;;;26.97;12.13;;;;;;;22.00;73.01;99776.71;124750;1102;101795;-78
2023/08/31 05:53:08;;;;;;;26.87;12.77;;;;;;;22.05;72.97;99770.36;124773;1102;102041;-78
2023/08/31 05:55:40;;;;;;;32.90;11.77;;;;;;;22.14;72.45;99779.94;124756;1102;104176;-78
2023/08/31 05:58:11;;;;;;;26.37;12.03;;;;;;;22.22;72.53;99783.33;124696;1102;104188;-76
2023/08/31 06:00:42;;;;;;;23.30;11.23;;;;;;;22.31;72.21;99781.38;124744;1102;104207;-80
2023/08/31 06:03:14;;;;;;;28.60;12.00;;;;;;;22.40;72.53;99783.83;124733;1102;104194;-81
2023/08/31 06:05:46;;;;;;;25.90;11.17;;;;;;;22.46;72.61;99781.01;124806;1102;101900;-79
2023/08/31 06:08:17;;;;;;;25.57;10.93;;;;;;;22.54;72.90;99789.70;124692;1101;104177;-81
2023/08/31 06:10:49;;;;;;;21.80;9.60;;;;;;;22.65;72.86;99786.77;124668;1102;101900;-79
2023/08/31 06:13:20;;;;;;;23.60;9.77;;;;;;;22.75;72.81;99784.73;124814;1101;104252;-79
2023/08/31 06:15:51;;;;;;;23.17;9.83;;;;;;;22.86;72.25;99785.34;124926;1102;101968;-78
2023/08/31 06:18:23;;;;;;;24.40;9.00;;;;;;;23.00;72.06;99786.76;125812;1098;101951;-79
2023/08/31 06:20:54;;;;;;;18.53;8.30;;;;;;;23.11;72.09;99782.05;124799;1102;102246;-77
2023/08/31 06:23:26;;;;;;;;;;;;;;;23.22;72.37;99785.30;124758;1102;102195;-77
2023/08/31 06:25:58;;;;;;;15.53;7.23;;;;;;;23.33;72.32;99791.23;125871;1099;101887;-80
2023/08/31 06:28:30;;;;;;;18.23;7.67;;;;;;;23.44;72.13;99793.59;124652;1102;104207;-79
2023/08/31 06:31:02;;;;;;;20.23;7.73;;;;;;;23.57;71.75;99790.56;124704;1102;102633;-80
2023/08/31 06:33:34;;;;;;;19.45;7.25;;;;;;;23.68;71.69;99791.12;124523;1099;104325;-77
2023/08/31 06:36:05;;;;;;;16.83;7.10;;;;;;;23.78;71.44;99797.08;125759;1099;101830;-78
2023/08/31 06:38:37;;;;;;;17.63;6.80;;;;;;;23.89;71.27;99797.69;127336;1098;101092;-80
2023/08/31 06:41:09;;;;;;;17.97;7.30;;;;;;;24.00;71.52;99797.36;124750;1099;104245;-78
2023/08/31 06:43:40;;;;;;;17.83;7.90;;;;;;;24.09;70.51;99797.08;124459;1099;102007;-78
2023/08/31 06:46:11;;;;;;;19.40;8.73;;;;;;;24.17;70.75;99800.38;124648;1099;104044;-78
2023/08/31 06:48:43;;;;;;;19.00;7.90;;;;;;;24.29;70.60;99800.91;124645;1099;104182;-79
2023/08/31 06:51:14;;;;;;;20.93;8.83;;;;;;;24.34;70.52;99802.53;124704;1099;102003;-79
2023/08/31 06:53:47;;;;;;;17.83;8.37;;;;;;;24.37;69.99;99810.48;124479;1099;104166;-78
2023/08/31 06:56:19;;;;;;;22.60;8.90;;;;;;;24.40;70.01;99810.37;124566;1099;104249;-78
2023/08/31 06:58:50;;;;;;;20.20;8.50;;;;;;;24.45;69.68;99817.37;124460;1102;102209;-77
2023/08/31 07:01:22;;;;;;;27.07;8.50;;;;;;;24.51;69.70;99815.39;124617;1099;104272;-78
2023/08/31 07:03:53;;;;;;;20.00;7.80;;;;;;;24.59;69.47;99820.54;124598;1099;104168;-78
2023/08/31 07:06:24;;;;;;;20.83;7.83;;;;;;;24.73;69.44;99834.36;124582;1099;104187;-79
2023/08/31 07:08:56;;;;;;;19.87;7.73;;;;;;;24.85;68.85;99830.37;125231;1099;102312;-79
2023/08/31 07:11:27;;;;;;;16.40;7.40;;;;;;;24.99;68.72;99837.08;124759;1099;104293;-80
2023/08/31 07:13:59;;;;;;;21.50;8.90;;;;;;;25.11;67.76;99829.48;124653;1100;104277;-78
2023/08/31 07:16:30;;;;;;;23.17;8.20;;;;;;;25.22;68.02;99829.09;124685;1099;104239;-80
2023/08/31 07:19:02;;;;;;;19.73;8.13;;;;;;;25.30;67.35;99836.91;124708;1099;104235;-80
2023/08/31 07:21:33;;;;;;;19.37;8.13;;;;;;;25.36;67.20;99836.70;124775;1099;102228;-78
2023/08/31 07:24:05;;;;;;;21.00;8.40;;;;;;;25.47;67.62;99825.56;124640;1099;104326;-78
2023/08/31 07:26:38;;;;;;;23.47;9.17;;;;;;;25.65;66.74;99832.95;124707;1099;104163;-79
2023/08/31 07:29:11;;;;;;;19.37;8.57;;;;;;;25.79;66.75;99840.50;125870;1098;101830;-77
2023/08/31 07:31:42;;;;;;;13.75;7.05;;;;;;;25.95;64.94;99846.16;125860;1098;101991;-78
2023/08/31 07:34:14;;;;;;;17.23;7.30;;;;;;;26.15;65.11;99844.55;124599;1099;101945;-78
2023/08/31 07:36:45;;;;;;;12.30;5.80;;;;;;;26.32;64.36;99843.89;124265;1099;104208;-77
2023/08/31 07:39:17;;;;;;;15.27;6.20;;;;;;;26.45;63.90;99849.64;124423;1099;101993;-78
2023/08/31 07:41:48;;;;;;;13.00;6.37;;;;;;;26.54;63.46;99846.59;124528;1099;101983;-78
2023/08/31 07:44:20;;;;;;;12.73;6.13;;;;;;;26.68;63.71;99851.44;124581;1099;102020;-78
2023/08/31 07:46:51;;;;;;;15.10;6.03;;;;;;;26.86;64.19;99853.33;124541;1099;104169;-78
2023/08/31 07:49:23;;;;;;;16.23;6.57;;;;;;;27.05;62.88;99861.53;124387;1099;102247;-77
2023/08/31 07:51:54;;;;;;;15.23;6.10;;;;;;;27.25;61.61;99849.90;124544;1099;102174;-78
2023/08/31 07:54:25;;;;;;;15.20;6.00;;;;;;;27.42;61.47;99853.69;124506;1099;102028;-79
2023/08/31 07:56:57;;;;;;;13.73;6.20;;;;;;;27.56;61.13;99839.59;124436;1099;104265;-78
2023/08/31 07:59:28;;;;;;;11.80;5.87;;;;;;;27.68;59.69;99840.87;124468;1099;102047;-78
2023/08/31 08:01:59;;;;;;;13.77;5.90;;;;;;;27.85;58.78;99848.19;124439;1099;104060;-78
2023/08/31 08:04:31;;;;;;;12.87;5.97;;;;;;;27.91;57.64;99851.46;124526;1099;104063;-77
2023/08/31 08:07:03;;;;;;;14.87;5.57;;;;;;;27.93;57.17;99848.69;124531;1099;104198;-77
2023/08/31 08:09:34;;;;;;;13.35;5.70;;;;;;;27.95;56.43;99846.82;124522;1099;101858;-78
2023/08/31 08:12:07;;;;;;;13.83;5.77;;;;;;;27.90;56.08;99848.84;124454;1099;101914;-79
2023/08/31 08:14:39;;;;;;;12.85;6.03;;;;;;;27.88;55.51;99851.60;124535;1098;101903;-78
2023/08/31 08:17:10;;;;;;;12.60;5.50;;;;;;;27.96;55.81;99844.05;124527;1099;102331;-79
2023/08/31 08:19:41;;;;;;;12.67;5.43;;;;;;;28.01;54.81;99851.06;124360;1099;104226;-76
2023/08/31 08:22:13;;;;;;;9.87;5.50;;;;;;;28.03;54.53;99850.02;124420;1099;102010;-79
2023/08/31 08:24:44;;;;;;;9.43;5.47;;;;;;;28.01;53.69;99851.93;124406;1099;104230;-77
2023/08/31 08:27:17;;;;;;;12.83;5.67;;;;;;;28.09;53.16;99848.87;124417;1099;104666;-79
2023/08/31 08:29:49;;;;;;;11.20;5.25;;;;;;;28.21;53.01;99845.59;124436;1099;104201;-77
2023/08/31 08:32:20;;;;;;;10.37;5.20;;;;;;;28.30;51.82;99850.55;124422;1099;104166;-77
2023/08/31 08:34:52;;;;;;;9.57;4.93;;;;;;;28.38;51.59;99849.31;124440;1099;102010;-77
2023/08/31 08:37:25;;;;;;;10.37;4.80;;;;;;;28.44;51.47;99849.88;124230;1098;104239;-76
2023/08/31 08:39:56;;;;;;;14.30;5.35;;;;;;;28.51;50.85;99856.70;124259;1099;101813;-77
2023/08/31 08:42:30;;;;;;;8.27;4.80;;;;;;;28.51;51.07;99855.84;124389;1099;104178;-77
2023/08/31 08:45:03;;;;;;;13.13;5.50;;;;;;;28.47;51.21;99859.62;124483;1098;101954;-77
2023/08/31 08:47:35;;;;;;;15.33;5.40;;;;;;;28.41;50.99;99863.52;124525;1099;104268;-76
2023/08/31 08:50:08;;;;;;;11.77;5.60;;;;;;;28.32;50.56;99861.27;124539;1099;104220;-77
2023/08/31 08:52:40;;;;;;;12.37;5.17;;;;;;;28.20;49.99;99862.71;124653;1099;104288;-79
2023/08/31 08:55:12;;;;;;;10.57;5.07;;;;;;;28.26;49.71;99865.13;124588;1098;101817;-79
2023/08/31 08:57:43;;;;;;;9.97;5.30;;;;;;;28.29;49.53;99864.11;124542;1099;104248;-78
2023/08/31 09:00:16;;;;;;;11.37;5.50;;;;;;;28.43;49.90;99869.70;124512;1099;102086;-78
2023/08/31 09:02:47;;;;;;;11.05;5.12;;;;;;;28.54;49.33;99868.32;124650;1099;104255;-77
2023/08/31 09:05:19;;;;;;;10.33;5.20;;;;;;;28.66;48.81;99876.72;124441;1099;104185;-77
2023/08/31 09:08:09;;;;;;;8.70;5.23;;;;;;;28.82;48.26;99868.72;124412;1099;104220;-78
2023/08/31 09:10:43;;;;;;;9.13;5.10;;;;;;;29.07;48.23;99867.48;124405;1099;101910;-77
2023/08/31 09:13:16;;;;;;;12.63;5.07;;;;;;;29.38;48.22;99874.04;124336;1099;102116;-76
2023/08/31 09:15:49;;;;;;;9.60;4.90;;;;;;;29.67;47.67;99863.49;124360;1099;102014;-78
2023/08/31 09:18:26;;;;;;;12.67;5.27;;;;;;;29.85;47.44;99867.08;124330;1099;102184;-76
2023/08/31 09:20:58;;;;;;;9.53;4.90;;;;;;;29.83;46.77;99869.00;124386;1099;104549;-76
2023/08/31 09:23:29;;;;;;;9.87;5.17;;;;;;;29.73;45.92;99873.97;124265;1102;104232;-77
2023/08/31 09:26:00;;;;;;;9.03;5.00;;;;;;;29.70;45.64;99874.14;124498;1099;101827;-77
2023/08/31 09:28:33;;;;;;;8.63;4.80;;;;;;;29.70;45.41;99864.22;124564;1099;104227;-78
2023/08/31 09:31:09;;;;;;;8.60;4.83;;;;;;;29.77;45.02;99870.16;124427;1099;104329;-78
2023/08/31 09:33:50;;;;;;;9.87;4.87;;;;;;;29.78;45.06;99871.02;124492;1099;104240;-78
2023/08/31 09:36:23;;;;;;;10.83;5.53;;;;;;;29.87;44.66;99866.05;124544;1099;104284;-78
2023/08/31 09:38:57;;;;;;;9.83;4.97;;;;;;;30.01;44.67;99872.51;124648;1099;104208;-78
2023/08/31 09:41:31;;;;;;;7.93;4.73;;;;;;;30.13;44.90;99868.27;124667;1099;102080;-80
2023/08/31 09:44:18;;;;;;;11.33;5.03;;;;;;;30.20;44.46;99866.94;124695;1099;102237;-77
2023/08/31 09:46:49;;;;;;;7.60;4.83;;;;;;;30.27;44.53;99869.22;124761;1099;104163;-80
2023/08/31 09:49:23;;;;;;;12.10;5.00;;;;;;;30.27;43.82;99869.22;124874;1099;101808;-80
2023/08/31 09:51:55;;;;;;;10.17;4.60;;;;;;;30.23;43.73;99874.89;124657;1099;101829;-79
2023/08/31 09:54:28;;;;;;;11.53;5.10;;;;;;;30.30;43.95;99873.59;124768;1099;104198;-81
2023/08/31 09:57:04;;;;;;;9.70;4.67;;;;;;;30.44;43.87;99868.30;124699;1099;102009;-79
2023/08/31 09:59:35;;;;;;;9.77;5.07;;;;;;;30.45;43.21;99866.48;124600;1099;104082;-78
2023/08/31 10:02:09;;;;;;;9.73;4.87;;;;;;;30.43;43.01;99863.87;124605;1099;104620;-78
2023/08/31 10:04:41;;;;;;;9.83;5.17;;;;;;;30.40;43.19;99869.45;124271;1099;101964;-76
2023/08/31 10:07:14;;;;;;;7.55;5.05;;;;;;;30.47;43.04;99868.12;124333;1099;104166;-77
2023/08/31 10:09:46;;;;;;;11.83;5.17;;;;;;;30.59;42.23;99868.37;124435;1099;102064;-76
2023/08/31 10:12:19;;;;;;;10.80;5.23;;;;;;;30.67;42.37;99876.05;124449;1099;102103;-77
2023/08/31 10:14:52;;;;;;;7.77;4.60;;;;;;;30.62;41.87;99877.21;124347;1099;104188;-79
2023/08/31 10:17:25;;;;;;;8.98;4.95;;;;;;;30.53;41.81;99869.62;125101;1099;104281;-76
2023/08/31 10:19:57;;;;;;;;;;;;;;;30.36;41.54;99872.39;124512;1099;101936;-78
2023/08/31 10:22:28;;;;;;;9.93;5.10;;;;;;;30.27;41.65;99868.36;124559;1099;104182;-80
2023/08/31 10:25:05;;;;;;;7.97;4.57;;;;;;;30.11;41.67;99868.34;125042;1099;102228;-76
2023/08/31 10:27:41;;;;;;;10.77;5.17;;;;;;;30.02;41.25;99872.42;124452;1099;101874;-76
2023/08/31 10:30:28;;;;;;;7.63;4.40;;;;;;;30.06;41.21;99865.00;124562;1099;102087;-78
2023/08/31 10:33:24;;;;;;;10.53;4.73;;;;;;;30.22;41.57;99862.34;124915;1099;102036;-79
2023/08/31 10:35:57;;;;;;;10.30;4.87;;;;;;;30.15;41.01;99866.33;125509;1099;102316;-81
2023/08/31 10:38:31;;;;;;;12.30;5.03;;;;;;;30.15;41.33;99866.33;126035;1098;101896;-79
2023/08/31 10:41:22;;;;;;;8.10;4.97;;;;;;;30.19;41.05;99855.25;124665;1099;104192;-81
2023/08/31 10:43:57;;;;;;;10.47;4.77;;;;;;;30.35;41.15;99855.25;125973;1097;102020;-79
2023/08/31 10:46:30;;;;;;;11.17;4.70;;;;;;;30.49;41.06;99856.34;125057;1099;102144;-78
2023/08/31 10:49:14;;;;;;;7.93;4.67;;;;;;;30.46;40.82;99858.28;125373;1099;104207;-80
2023/08/31 10:51:46;;;;;;;8.20;4.83;;;;;;;30.56;40.67;99855.91;125352;1099;104172;-80
2023/08/31 10:54:24;;;;;;;8.48;4.62;;;;;;;30.45;40.18;99852.95;125073;1099;104159;-77
2023/08/31 10:57:05;;;;;;;9.07;4.87;;;;;;;30.30;40.06;99857.36;124458;1099;102090;-76
2023/08/31 10:59:51;;;;;;;9.67;4.90;;;;;;;30.27;40.20;99849.41;124516;1099;104248;-77
2023/08/31 11:02:35;;;;;;;9.33;4.77;;;;;;;30.33;40.26;99849.06;124512;1099;104239;-78
2023/08/31 11:05:11;;;;;;;9.57;4.73;;;;;;;30.49;40.43;99845.52;124553;1099;104102;-76
2023/08/31 11:07:43;;;;;;;12.97;5.23;;;;;;;30.59;40.38;99849.42;124607;1099;101865;-80
2023/08/31 11:10:17;;;;;;;8.93;5.40;;;;;;;30.68;40.02;99848.88;124539;1099;104265;-81
2023/08/31 11:12:50;;;;;;;8.37;4.60;;;;;;;30.76;40.22;99843.92;124668;1099;101988;-79
2023/08/31 11:15:23;;;;;;;7.83;4.50;;;;;;;30.90;39.85;99843.10;124705;1099;104098;-79
2023/08/31 11:17:55;;;;;;;10.15;4.80;;;;;;;30.96;39.86;99844.55;124616;1099;101798;-80
2023/08/31 11:20:27;;;;;;;8.30;4.83;;;;;;;31.09;39.84;99848.32;124658;1099;102077;-80
2023/08/31 11:22:59;;;;;;;9.87;5.13;;;;;;;31.15;39.75;99845.23;124801;1099;101900;-83
2023/08/31 11:25:34;;;;;;;9.30;4.97;;;;;;;31.19;39.82;99852.20;125492;1099;104172;-81
2023/08/31 11:28:08;;;;;;;9.13;4.97;;;;;;;31.15;39.29;99847.95;124690;1098;102255;-79
2023/08/31 11:30:44;;;;;;;10.27;5.13;;;;;;;31.19;39.63;99848.63;124775;1098;104204;-81
2023/08/31 11:33:15;;;;;;;10.53;4.77;;;;;;;31.24;39.09;99851.06;125230;1099;104229;-80
2023/08/31 11:35:46;;;;;;;13.23;4.70;;;;;;;31.25;38.92;99850.97;125090;1099;101891;-80